sensor_id;sensor_type;location;lat;lon;timestamp;pressure;altitude;pressure_sealevel;temperature;humidity
250;BME280;109;19.806;-70.704;2022-12-07T00:01:12;101620.09;;;21.31;63.56
250;BME280;109;19.806;-70.704;2022-12-07T00:03:41;101618.41;;;21.27;63.79
250;BME280;109;19.806;-70.704;2022-12-07T00:06:10;101618.47;;;21.25;63.83
250;BME280;109;19.806;-70.704;2022-12-07T00:08:38;101623.88;;;21.20;63.73
250;BME280;109;19.806;-70.704;2022-12-07T00:11:09;101622.94;;;21.23;63.67
250;BME280;109;19.806;-70.704;2022-12-07T00:13:37;101629.22;;;21.20;63.56
250;BME280;109;19.806;-70.704;2022-12-07T00:16:07;101630.94;;;21.23;63.62
250;BME280;109;19.806;-70.704;2022-12-07T00:18:34;101629.06;;;21.27;63.63
250;BME280;109;19.806;-70.704;2022-12-07T00:21:05;101627.50;;;21.19;63.83
250;BME280;109;19.806;-70.704;2022-12-07T00:23:33;101629.38;;;21.14;63.79
250;BME280;109;19.806;-70.704;2022-12-07T00:26:07;101637.47;;;21.08;64.37
250;BME280;109;19.806;-70.704;2022-12-07T00:28:34;101634.75;;;21.11;63.50
250;BME280;109;19.806;-70.704;2022-12-07T00:31:02;101635.91;;;21.00;64.41
250;BME280;109;19.806;-70.704;2022-12-07T00:33:29;101641.13;;;21.04;63.69
250;BME280;109;19.806;-70.704;2022-12-07T00:35:59;101642.03;;;21.03;64.15
250;BME280;109;19.806;-70.704;2022-12-07T00:38:28;101643.19;;;20.93;64.88
250;BME280;109;19.806;-70.704;2022-12-07T00:40:57;101639.03;;;20.81;64.69
250;BME280;109;19.806;-70.704;2022-12-07T00:43:24;101641.44;;;20.92;64.48
250;BME280;109;19.806;-70.704;2022-12-07T00:45:51;101643.00;;;21.01;64.06
250;BME280;109;19.806;-70.704;2022-12-07T00:48:19;101646.84;;;20.87;64.30
250;BME280;109;19.806;-70.704;2022-12-07T00:50:45;101648.78;;;20.81;64.53
250;BME280;109;19.806;-70.704;2022-12-07T00:53:13;101647.03;;;20.80;64.73
250;BME280;109;19.806;-70.704;2022-12-07T00:55:39;101654.88;;;20.86;64.26
250;BME280;109;19.806;-70.704;2022-12-07T00:58:13;101646.81;;;20.89;63.96
250;BME280;109;19.806;-70.704;2022-12-07T01:00:42;101652.34;;;20.81;64.00
250;BME280;109;19.806;-70.704;2022-12-07T01:03:16;101647.72;;;20.88;63.83
250;BME280;109;19.806;-70.704;2022-12-07T01:05:53;101646.19;;;20.78;64.38
250;BME280;109;19.806;-70.704;2022-12-07T01:08:28;101639.63;;;20.94;63.83
250;BME280;109;19.806;-70.704;2022-12-07T01:11:03;101642.34;;;20.91;63.48
250;BME280;109;19.806;-70.704;2022-12-07T01:13:38;101638.00;;;20.87;63.72
250;BME280;109;19.806;-70.704;2022-12-07T01:16:05;101640.56;;;20.92;63.58
250;BME280;109;19.806;-70.704;2022-12-07T01:18:39;101647.78;;;20.85;64.01
250;BME280;109;19.806;-70.704;2022-12-07T01:21:07;101636.31;;;20.83;64.00
250;BME280;109;19.806;-70.704;2022-12-07T01:23:42;101650.59;;;20.80;63.86
250;BME280;109;19.806;-70.704;2022-12-07T01:26:14;101642.50;;;20.83;63.96
250;BME280;109;19.806;-70.704;2022-12-07T01:28:49;101654.13;;;20.81;64.17
250;BME280;109;19.806;-70.704;2022-12-07T01:31:18;101651.53;;;20.78;64.05
250;BME280;109;19.806;-70.704;2022-12-07T01:34:06;101650.59;;;20.80;64.00
250;BME280;109;19.806;-70.704;2022-12-07T01:36:39;101650.38;;;20.88;64.25
250;BME280;109;19.806;-70.704;2022-12-07T01:39:19;101643.47;;;20.81;63.72
250;BME280;109;19.806;-70.704;2022-12-07T01:41:46;101655.91;;;20.80;64.07
250;BME280;109;19.806;-70.704;2022-12-07T01:44:27;101662.22;;;20.75;64.21
250;BME280;109;19.806;-70.704;2022-12-07T01:47:04;101657.09;;;20.67;64.34
250;BME280;109;19.806;-70.704;2022-12-07T01:49:47;101657.16;;;20.64;64.46
250;BME280;109;19.806;-70.704;2022-12-07T01:52:33;101666.06;;;20.62;64.52
250;BME280;109;19.806;-70.704;2022-12-07T01:55:15;101662.56;;;20.60;64.54
250;BME280;109;19.806;-70.704;2022-12-07T01:57:46;101667.88;;;20.60;64.86
250;BME280;109;19.806;-70.704;2022-12-07T02:00:27;101664.31;;;20.61;64.88
250;BME280;109;19.806;-70.704;2022-12-07T02:03:27;101659.94;;;20.58;65.29
250;BME280;109;19.806;-70.704;2022-12-07T02:06:06;101669.03;;;20.45;65.30
250;BME280;109;19.806;-70.704;2022-12-07T02:08:47;101670.91;;;20.41;65.13
250;BME280;109;19.806;-70.704;2022-12-07T02:11:13;101666.41;;;20.43;65.01
250;BME280;109;19.806;-70.704;2022-12-07T02:13:54;101672.66;;;20.42;65.13
250;BME280;109;19.806;-70.704;2022-12-07T02:20:04;101671.69;;;20.48;64.97
250;BME280;109;19.806;-70.704;2022-12-07T02:29:18;101670.91;;;20.41;65.12
250;BME280;109;19.806;-70.704;2022-12-07T02:32:06;101671.03;;;20.35;65.22
250;BME280;109;19.806;-70.704;2022-12-07T02:40:50;101666.66;;;20.31;65.98
250;BME280;109;19.806;-70.704;2022-12-07T02:46:19;101662.97;;;20.40;65.94
250;BME280;109;19.806;-70.704;2022-12-07T02:49:00;101669.19;;;20.39;65.38
250;BME280;109;19.806;-70.704;2022-12-07T02:51:31;101673.63;;;20.38;65.20
250;BME280;109;19.806;-70.704;2022-12-07T02:54:19;101665.72;;;20.35;65.65
250;BME280;109;19.806;-70.704;2022-12-07T03:00:11;101662.25;;;20.30;65.42
250;BME280;109;19.806;-70.704;2022-12-07T03:03:11;101660.31;;;20.40;65.57
250;BME280;109;19.806;-70.704;2022-12-07T03:11:20;101649.75;;;20.35;65.40
250;BME280;109;19.806;-70.704;2022-12-07T03:14:31;101651.53;;;20.35;65.09
250;BME280;109;19.806;-70.704;2022-12-07T03:17:14;101646.25;;;20.33;65.33
250;BME280;109;19.806;-70.704;2022-12-07T03:20:02;101649.69;;;20.40;65.00
250;BME280;109;19.806;-70.704;2022-12-07T03:22:46;101652.50;;;20.31;65.15
250;BME280;109;19.806;-70.704;2022-12-07T03:25:27;101640.03;;;20.34;65.63
250;BME280;109;19.806;-70.704;2022-12-07T03:27:56;101644.44;;;20.35;65.41
250;BME280;109;19.806;-70.704;2022-12-07T03:39:38;101635.31;;;20.48;65.23
250;BME280;109;19.806;-70.704;2022-12-07T03:42:12;101628.22;;;20.47;65.51
250;BME280;109;19.806;-70.704;2022-12-07T03:44:53;101629.94;;;20.51;65.07
250;BME280;109;19.806;-70.704;2022-12-07T03:47:37;101629.94;;;20.51;65.16
250;BME280;109;19.806;-70.704;2022-12-07T03:50:52;101623.75;;;20.51;65.37
250;BME280;109;19.806;-70.704;2022-12-07T03:53:39;101629.06;;;20.51;65.81
250;BME280;109;19.806;-70.704;2022-12-07T03:56:15;101629.03;;;20.52;65.76
250;BME280;109;19.806;-70.704;2022-12-07T03:58:55;101622.91;;;20.47;65.49
250;BME280;109;19.806;-70.704;2022-12-07T04:01:23;101617.56;;;20.50;65.82
250;BME280;109;19.806;-70.704;2022-12-07T04:04:03;101618.50;;;20.46;65.78
250;BME280;109;19.806;-70.704;2022-12-07T04:06:30;101608.69;;;20.50;65.66
250;BME280;109;19.806;-70.704;2022-12-07T04:09:09;101608.78;;;20.44;65.70
250;BME280;109;19.806;-70.704;2022-12-07T04:11:36;101606.00;;;20.51;66.07
250;BME280;109;19.806;-70.704;2022-12-07T04:14:16;101613.16;;;20.46;66.24
250;BME280;109;19.806;-70.704;2022-12-07T04:16:56;101623.06;;;20.41;66.31
250;BME280;109;19.806;-70.704;2022-12-07T04:19:35;101628.41;;;20.40;66.81
250;BME280;109;19.806;-70.704;2022-12-07T04:22:03;101635.47;;;20.41;66.71
250;BME280;109;19.806;-70.704;2022-12-07T04:24:44;101624.63;;;20.51;67.46
250;BME280;109;19.806;-70.704;2022-12-07T04:27:10;101628.09;;;20.55;67.88
250;BME280;109;19.806;-70.704;2022-12-07T04:29:51;101611.28;;;20.55;68.83
250;BME280;109;19.806;-70.704;2022-12-07T04:32:17;101600.66;;;20.53;69.18
250;BME280;109;19.806;-70.704;2022-12-07T04:35:03;101610.41;;;20.54;69.39
250;BME280;109;19.806;-70.704;2022-12-07T04:37:36;101608.66;;;20.51;68.78
250;BME280;109;19.806;-70.704;2022-12-07T04:40:16;101611.56;;;20.39;69.18
250;BME280;109;19.806;-70.704;2022-12-07T04:42:43;101611.00;;;20.25;69.42
250;BME280;109;19.806;-70.704;2022-12-07T04:45:24;101616.16;;;20.31;70.01
250;BME280;109;19.806;-70.704;2022-12-07T04:48:03;101614.41;;;20.30;69.99
250;BME280;109;19.806;-70.704;2022-12-07T04:50:30;101614.75;;;20.15;70.29
250;BME280;109;19.806;-70.704;2022-12-07T04:53:18;101608.28;;;20.28;70.00
250;BME280;109;19.806;-70.704;2022-12-07T04:55:51;101605.56;;;20.30;69.85
250;BME280;109;19.806;-70.704;2022-12-07T04:58:33;101601.59;;;20.07;69.88
250;BME280;109;19.806;-70.704;2022-12-07T05:01:00;101599.88;;;20.05;70.50
250;BME280;109;19.806;-70.704;2022-12-07T05:03:40;101600.59;;;20.14;70.04
250;BME280;109;19.806;-70.704;2022-12-07T05:06:07;101592.59;;;20.16;70.21
250;BME280;109;19.806;-70.704;2022-12-07T05:08:47;101589.00;;;20.17;70.20
250;BME280;109;19.806;-70.704;2022-12-07T05:11:13;101588.06;;;20.19;70.54
250;BME280;109;19.806;-70.704;2022-12-07T05:14:17;101590.91;;;20.10;70.10
250;BME280;109;19.806;-70.704;2022-12-07T05:16:51;101594.72;;;19.99;70.83
250;BME280;109;19.806;-70.704;2022-12-07T05:19:33;101590.97;;;20.07;70.95
250;BME280;109;19.806;-70.704;2022-12-07T05:21:59;101593.63;;;20.07;70.50
250;BME280;109;19.806;-70.704;2022-12-07T05:24:39;101588.53;;;19.97;70.88
250;BME280;109;19.806;-70.704;2022-12-07T05:27:05;101595.41;;;20.07;70.83
250;BME280;109;19.806;-70.704;2022-12-07T05:29:44;101597.16;;;20.08;70.65
250;BME280;109;19.806;-70.704;2022-12-07T05:32:11;101587.59;;;20.01;70.46
250;BME280;109;19.806;-70.704;2022-12-07T05:35:00;101592.75;;;20.07;70.39
250;BME280;109;19.806;-70.704;2022-12-07T05:37:33;101592.88;;;20.02;70.85
250;BME280;109;19.806;-70.704;2022-12-07T05:40:14;101585.66;;;20.07;70.78
250;BME280;109;19.806;-70.704;2022-12-07T05:42:54;101588.31;;;20.07;70.60
250;BME280;109;19.806;-70.704;2022-12-07T05:45:21;101589.31;;;20.03;70.86
250;BME280;109;19.806;-70.704;2022-12-07T05:48:00;101585.69;;;20.06;nan
250;BME280;109;19.806;-70.704;2022-12-07T05:50:27;101588.22;;;20.12;70.56
250;BME280;109;19.806;-70.704;2022-12-07T05:53:07;101589.34;;;20.02;71.16
250;BME280;109;19.806;-70.704;2022-12-07T05:55:41;101588.53;;;19.98;71.02
250;BME280;109;19.806;-70.704;2022-12-07T05:58:20;101580.63;;;19.94;70.98
250;BME280;109;19.806;-70.704;2022-12-07T06:01:11;101570.91;;;19.93;70.92
250;BME280;109;19.806;-70.704;2022-12-07T06:03:52;101558.38;;;19.99;71.10
250;BME280;109;19.806;-70.704;2022-12-07T06:06:18;101565.59;;;19.93;71.12
250;BME280;109;19.806;-70.704;2022-12-07T06:08:58;101563.84;;;19.92;71.12
250;BME280;109;19.806;-70.704;2022-12-07T06:11:25;101570.13;;;19.89;70.86
250;BME280;109;19.806;-70.704;2022-12-07T06:14:24;101579.78;;;19.92;70.68
250;BME280;109;19.806;-70.704;2022-12-07T06:16:50;101582.38;;;19.95;71.16
250;BME280;109;19.806;-70.704;2022-12-07T06:19:31;101593.00;;;19.95;70.72
250;BME280;109;19.806;-70.704;2022-12-07T06:21:58;101598.38;;;19.92;71.06
250;BME280;109;19.806;-70.704;2022-12-07T06:24:39;101601.56;;;19.64;70.51
250;BME280;109;19.806;-70.704;2022-12-07T06:27:06;101589.72;;;19.80;71.06
250;BME280;109;19.806;-70.704;2022-12-07T06:29:45;101589.66;;;19.87;71.67
250;BME280;109;19.806;-70.704;2022-12-07T06:32:12;101589.13;;;20.11;71.64
250;BME280;109;19.806;-70.704;2022-12-07T06:34:52;101584.13;;;19.96;72.89
250;BME280;109;19.806;-70.704;2022-12-07T06:37:31;101580.28;;;20.10;74.18
250;BME280;109;19.806;-70.704;2022-12-07T06:40:12;101585.16;;;19.90;73.37
250;BME280;109;19.806;-70.704;2022-12-07T06:42:51;101571.75;;;19.95;72.29
250;BME280;109;19.806;-70.704;2022-12-07T06:45:18;101574.16;;;20.07;72.56
250;BME280;109;19.806;-70.704;2022-12-07T06:47:57;101579.31;;;20.14;72.39
250;BME280;109;19.806;-70.704;2022-12-07T06:50:24;101571.16;;;20.24;71.42
250;BME280;109;19.806;-70.704;2022-12-07T06:53:04;101582.66;;;20.24;70.71
250;BME280;109;19.806;-70.704;2022-12-07T06:55:30;101586.28;;;20.20;70.47
250;BME280;109;19.806;-70.704;2022-12-07T06:58:18;101582.84;;;20.16;70.42
250;BME280;109;19.806;-70.704;2022-12-07T07:00:52;101571.19;;;20.22;69.28
250;BME280;109;19.806;-70.704;2022-12-07T07:03:32;101561.03;;;20.41;69.82
250;BME280;109;19.806;-70.704;2022-12-07T07:05:58;101549.56;;;20.37;69.41
250;BME280;109;19.806;-70.704;2022-12-07T07:08:38;101553.00;;;20.42;69.41
250;BME280;109;19.806;-70.704;2022-12-07T07:11:06;101545.69;;;20.53;69.07
250;BME280;109;19.806;-70.704;2022-12-07T07:13:47;101539.25;;;20.62;67.54
250;BME280;109;19.806;-70.704;2022-12-07T07:16:13;101545.09;;;20.78;66.90
250;BME280;109;19.806;-70.704;2022-12-07T07:18:54;101547.28;;;20.96;68.09
250;BME280;109;19.806;-70.704;2022-12-07T07:21:20;101545.69;;;20.89;65.69
250;BME280;109;19.806;-70.704;2022-12-07T07:24:00;101542.84;;;20.97;66.46
250;BME280;109;19.806;-70.704;2022-12-07T07:26:26;101549.41;;;21.19;65.98
250;BME280;109;19.806;-70.704;2022-12-07T07:29:07;101539.47;;;21.26;66.04
250;BME280;109;19.806;-70.704;2022-12-07T07:31:33;101547.44;;;21.26;65.14
250;BME280;109;19.806;-70.704;2022-12-07T07:34:19;101549.06;;;21.33;65.08
250;BME280;109;19.806;-70.704;2022-12-07T07:36:52;101552.94;;;21.52;64.94
250;BME280;109;19.806;-70.704;2022-12-07T07:39:39;101558.75;;;21.34;65.21
250;BME280;109;19.806;-70.704;2022-12-07T07:42:12;101546.56;;;21.25;65.72
250;BME280;109;19.806;-70.704;2022-12-07T07:44:54;101546.75;;;21.19;66.62
250;BME280;109;19.806;-70.704;2022-12-07T07:47:20;101541.66;;;21.08;66.62
250;BME280;109;19.806;-70.704;2022-12-07T07:50:02;101542.75;;;21.00;67.48
250;BME280;109;19.806;-70.704;2022-12-07T07:52:41;101528.97;;;20.84;67.50
250;BME280;109;19.806;-70.704;2022-12-07T07:55:08;101533.50;;;20.80;67.58
250;BME280;109;19.806;-70.704;2022-12-07T07:57:48;101533.13;;;20.59;67.73
250;BME280;109;19.806;-70.704;2022-12-07T08:00:16;101534.28;;;20.48;68.21
250;BME280;109;19.806;-70.704;2022-12-07T08:02:56;101545.88;;;20.43;68.40
250;BME280;109;19.806;-70.704;2022-12-07T08:05:23;101540.63;;;20.41;68.92
250;BME280;109;19.806;-70.704;2022-12-07T08:08:03;101546.09;;;20.34;69.39
250;BME280;109;19.806;-70.704;2022-12-07T08:10:37;101551.78;;;20.17;69.50
250;BME280;109;19.806;-70.704;2022-12-07T08:13:17;101562.50;;;20.14;69.56
250;BME280;109;19.806;-70.704;2022-12-07T08:15:46;101559.94;;;20.09;69.88
250;BME280;109;19.806;-70.704;2022-12-07T08:18:27;101551.09;;;20.09;69.80
250;BME280;109;19.806;-70.704;2022-12-07T08:20:59;101548.22;;;20.18;69.42
250;BME280;109;19.806;-70.704;2022-12-07T08:23:39;101550.00;;;20.17;69.23
250;BME280;109;19.806;-70.704;2022-12-07T08:26:07;101557.91;;;20.21;69.25
250;BME280;109;19.806;-70.704;2022-12-07T08:28:48;101564.97;;;20.22;68.79
250;BME280;109;19.806;-70.704;2022-12-07T08:31:16;101566.78;;;20.19;68.57
250;BME280;109;19.806;-70.704;2022-12-07T08:34:04;101599.50;;;20.23;68.95
250;BME280;109;19.806;-70.704;2022-12-07T08:36:37;101606.19;;;20.01;69.56
250;BME280;109;19.806;-70.704;2022-12-07T08:39:33;101620.53;;;19.91;71.08
250;BME280;109;19.806;-70.704;2022-12-07T08:42:06;101619.03;;;19.77;70.11
250;BME280;109;19.806;-70.704;2022-12-07T08:44:47;101625.13;;;19.84;71.07
250;BME280;109;19.806;-70.704;2022-12-07T08:47:14;101625.19;;;19.78;71.35
250;BME280;109;19.806;-70.704;2022-12-07T08:49:55;101613.53;;;19.88;71.29
250;BME280;109;19.806;-70.704;2022-12-07T08:52:36;101602.91;;;19.88;71.64
250;BME280;109;19.806;-70.704;2022-12-07T08:55:03;101612.56;;;19.91;71.63
250;BME280;109;19.806;-70.704;2022-12-07T08:57:52;101602.75;;;19.94;72.12
250;BME280;109;19.806;-70.704;2022-12-07T09:00:26;101606.44;;;19.89;72.13
250;BME280;109;19.806;-70.704;2022-12-07T09:03:06;101595.84;;;19.87;72.61
250;BME280;109;19.806;-70.704;2022-12-07T09:05:33;101607.19;;;19.94;72.17
250;BME280;109;19.806;-70.704;2022-12-07T09:08:14;101602.75;;;19.94;72.37
250;BME280;109;19.806;-70.704;2022-12-07T09:10:40;101593.94;;;19.92;72.57
250;BME280;109;19.806;-70.704;2022-12-07T09:13:21;101593.16;;;19.89;72.83
250;BME280;109;19.806;-70.704;2022-12-07T09:15:47;101596.63;;;19.91;72.47
250;BME280;109;19.806;-70.704;2022-12-07T09:18:28;101594.06;;;19.88;72.42
250;BME280;109;19.806;-70.704;2022-12-07T09:20:56;101591.50;;;19.81;72.22
250;BME280;109;19.806;-70.704;2022-12-07T09:23:37;101595.94;;;19.81;71.86
250;BME280;109;19.806;-70.704;2022-12-07T09:26:04;101595.94;;;19.81;71.67
250;BME280;109;19.806;-70.704;2022-12-07T09:28:44;101588.16;;;19.70;71.46
250;BME280;109;19.806;-70.704;2022-12-07T09:31:10;101593.50;;;19.69;71.82
250;BME280;109;19.806;-70.704;2022-12-07T09:33:58;101587.50;;;19.58;72.57
250;BME280;109;19.806;-70.704;2022-12-07T09:36:38;101592.75;;;19.62;72.32
250;BME280;109;19.806;-70.704;2022-12-07T09:39:26;101591.97;;;19.56;72.22
250;BME280;109;19.806;-70.704;2022-12-07T09:42:03;101584.94;;;19.53;71.80
250;BME280;109;19.806;-70.704;2022-12-07T09:44:44;101585.06;;;19.47;72.01
250;BME280;109;19.806;-70.704;2022-12-07T09:47:10;101587.91;;;19.38;72.26
250;BME280;109;19.806;-70.704;2022-12-07T09:49:51;101592.25;;;19.39;72.69
250;BME280;109;19.806;-70.704;2022-12-07T09:52:21;101586.81;;;19.48;72.71
250;BME280;109;19.806;-70.704;2022-12-07T09:55:13;101591.28;;;19.46;72.38
250;BME280;109;19.806;-70.704;2022-12-07T09:58:01;101601.88;;;19.47;71.80
250;BME280;109;19.806;-70.704;2022-12-07T10:00:35;101608.94;;;19.48;72.24
250;BME280;109;19.806;-70.704;2022-12-07T10:03:15;101602.94;;;19.37;72.15
250;BME280;109;19.806;-70.704;2022-12-07T10:05:45;101610.72;;;19.48;72.45
250;BME280;109;19.806;-70.704;2022-12-07T10:08:27;101622.22;;;19.48;72.68
250;BME280;109;19.806;-70.704;2022-12-07T10:10:55;101618.63;;;19.51;72.69
250;BME280;109;19.806;-70.704;2022-12-07T10:13:46;101621.28;;;19.51;72.57
250;BME280;109;19.806;-70.704;2022-12-07T10:19:30;101631.06;;;19.47;72.39
250;BME280;109;19.806;-70.704;2022-12-07T10:22:15;101622.22;;;19.47;72.17
250;BME280;109;19.806;-70.704;2022-12-07T10:25:08;101625.78;;;19.46;72.75
250;BME280;109;19.806;-70.704;2022-12-07T10:28:33;101622.22;;;19.47;72.42
250;BME280;109;19.806;-70.704;2022-12-07T10:31:20;101627.56;;;19.45;72.77
250;BME280;109;19.806;-70.704;2022-12-07T10:34:01;101630.25;;;19.44;72.42
250;BME280;109;19.806;-70.704;2022-12-07T10:36:36;101633.81;;;19.41;72.39
250;BME280;109;19.806;-70.704;2022-12-07T10:39:19;101640.94;;;19.39;72.35
250;BME280;109;19.806;-70.704;2022-12-07T10:41:53;101645.28;;;19.43;72.11
250;BME280;109;19.806;-70.704;2022-12-07T10:44:34;101643.44;;;19.48;72.33
250;BME280;109;19.806;-70.704;2022-12-07T11:07:07;101665.00;;;19.29;72.30
250;BME280;109;19.806;-70.704;2022-12-07T11:19:03;101653.72;;;19.15;72.04
250;BME280;109;19.806;-70.704;2022-12-07T11:35:11;101671.16;;;19.31;72.07
250;BME280;109;19.806;-70.704;2022-12-07T11:37:42;101681.94;;;19.22;71.94
250;BME280;109;19.806;-70.704;2022-12-07T11:40:31;101684.50;;;19.28;71.89
250;BME280;109;19.806;-70.704;2022-12-07T11:43:55;101683.69;;;19.24;71.99
250;BME280;109;19.806;-70.704;2022-12-07T11:46:15;101691.44;;;19.36;71.58
250;BME280;109;19.806;-70.704;2022-12-07T11:48:46;101687.00;;;19.38;71.43
250;BME280;109;19.806;-70.704;2022-12-07T11:51:18;101685.97;;;19.47;71.56
250;BME280;109;19.806;-70.704;2022-12-07T11:53:52;101689.38;;;19.52;71.26
250;BME280;109;19.806;-70.704;2022-12-07T11:56:23;101693.75;;;19.56;71.17
250;BME280;109;19.806;-70.704;2022-12-07T11:58:57;101698.13;;;19.60;71.23
250;BME280;109;19.806;-70.704;2022-12-07T12:04:07;101709.44;;;19.71;71.31
250;BME280;109;19.806;-70.704;2022-12-07T12:06:44;101704.78;;;19.86;70.79
250;BME280;109;19.806;-70.704;2022-12-07T12:09:33;101704.63;;;19.93;70.54
250;BME280;109;19.806;-70.704;2022-12-07T12:15:04;101717.63;;;20.10;70.55
250;BME280;109;19.806;-70.704;2022-12-07T12:20:41;101717.19;;;20.31;70.32
250;BME280;109;19.806;-70.704;2022-12-07T12:23:20;101725.13;;;20.33;70.76
250;BME280;109;19.806;-70.704;2022-12-07T12:26:05;101732.06;;;20.41;70.61
250;BME280;109;19.806;-70.704;2022-12-07T12:28:37;101730.97;;;20.55;70.86
250;BME280;109;19.806;-70.704;2022-12-07T12:33:50;101735.91;;;20.71;69.97
250;BME280;109;19.806;-70.704;2022-12-07T12:46:57;101749.28;;;21.47;69.44
250;BME280;109;19.806;-70.704;2022-12-07T12:51:58;101759.50;;;21.65;69.16
250;BME280;109;19.806;-70.704;2022-12-07T12:54:31;101753.81;;;21.80;68.81
250;BME280;109;19.806;-70.704;2022-12-07T12:59:57;101762.06;;;22.05;68.40
250;BME280;109;19.806;-70.704;2022-12-07T13:02:28;101767.34;;;22.07;67.75
250;BME280;109;19.806;-70.704;2022-12-07T13:08:28;101770.09;;;22.36;67.11
250;BME280;109;19.806;-70.704;2022-12-07T13:11:47;101779.56;;;22.49;66.86
250;BME280;109;19.806;-70.704;2022-12-07T13:19:55;101779.56;;;22.79;65.32
250;BME280;109;19.806;-70.704;2022-12-07T13:25:03;101782.94;;;22.85;62.95
250;BME280;109;19.806;-70.704;2022-12-07T13:27:32;101787.03;;;22.97;62.60
250;BME280;109;19.806;-70.704;2022-12-07T13:29:59;101788.38;;;23.13;63.08
250;BME280;109;19.806;-70.704;2022-12-07T13:32:29;101785.50;;;23.19;61.75
250;BME280;109;19.806;-70.704;2022-12-07T13:34:55;101786.91;;;23.31;62.25
250;BME280;109;19.806;-70.704;2022-12-07T13:37:27;101791.22;;;23.35;61.69
250;BME280;109;19.806;-70.704;2022-12-07T13:39:57;101791.97;;;23.40;61.46
250;BME280;109;19.806;-70.704;2022-12-07T13:44:53;101792.03;;;23.66;60.85
250;BME280;109;19.806;-70.704;2022-12-07T13:49:54;101795.78;;;23.87;60.86
250;BME280;109;19.806;-70.704;2022-12-07T13:52:25;101800.16;;;23.90;60.27
250;BME280;109;19.806;-70.704;2022-12-07T13:57:31;101800.63;;;24.02;59.44
250;BME280;109;19.806;-70.704;2022-12-07T14:00:21;101796.97;;;24.05;58.75
250;BME280;109;19.806;-70.704;2022-12-07T14:02:59;101795.88;;;24.11;59.13
250;BME280;109;19.806;-70.704;2022-12-07T14:05:28;101800.19;;;24.16;58.87
250;BME280;109;19.806;-70.704;2022-12-07T14:08:00;101799.88;;;24.24;58.99
250;BME280;109;19.806;-70.704;2022-12-07T14:13:39;101792.69;;;24.26;57.74
250;BME280;109;19.806;-70.704;2022-12-07T14:16:25;101796.63;;;24.40;57.85
250;BME280;109;19.806;-70.704;2022-12-07T14:18:55;101794.59;;;24.47;58.58
250;BME280;109;19.806;-70.704;2022-12-07T14:21:27;101798.69;;;24.57;58.21
250;BME280;109;19.806;-70.704;2022-12-07T14:24:17;101801.94;;;24.65;58.02
250;BME280;109;19.806;-70.704;2022-12-07T14:26:49;101796.28;;;24.74;57.84
250;BME280;109;19.806;-70.704;2022-12-07T14:29:30;101802.44;;;24.77;57.45
250;BME280;109;19.806;-70.704;2022-12-07T14:32:04;101800.03;;;24.69;57.73
250;BME280;109;19.806;-70.704;2022-12-07T14:34:39;101798.69;;;24.57;55.62
250;BME280;109;19.806;-70.704;2022-12-07T14:37:09;101799.44;;;24.36;56.31
250;BME280;109;19.806;-70.704;2022-12-07T14:39:36;101800.00;;;24.21;56.37
250;BME280;109;19.806;-70.704;2022-12-07T14:42:03;101802.13;;;24.10;56.86
250;BME280;109;19.806;-70.704;2022-12-07T14:44:29;101790.56;;;24.09;57.39
250;BME280;109;19.806;-70.704;2022-12-07T14:46:56;101797.53;;;23.88;56.97
250;BME280;109;19.806;-70.704;2022-12-07T14:49:22;101795.69;;;23.64;59.70
250;BME280;109;19.806;-70.704;2022-12-07T14:51:49;101791.09;;;23.40;59.68
250;BME280;109;19.806;-70.704;2022-12-07T14:54:20;101782.56;;;23.55;59.37
250;BME280;109;19.806;-70.704;2022-12-07T14:56:47;101794.97;;;23.85;59.00
250;BME280;109;19.806;-70.704;2022-12-07T14:59:17;101785.75;;;23.94;57.89
250;BME280;109;19.806;-70.704;2022-12-07T15:01:45;101782.31;;;24.42;57.06
250;BME280;109;19.806;-70.704;2022-12-07T15:04:11;101785.63;;;24.71;56.52
250;BME280;109;19.806;-70.704;2022-12-07T15:06:38;101788.84;;;24.83;55.12
250;BME280;109;19.806;-70.704;2022-12-07T15:09:05;101787.38;;;24.72;55.13
250;BME280;109;19.806;-70.704;2022-12-07T15:11:32;101792.72;;;24.49;55.87
250;BME280;109;19.806;-70.704;2022-12-07T15:13:58;101786.56;;;24.95;55.61
250;BME280;109;19.806;-70.704;2022-12-07T15:16:35;101782.72;;;25.02;55.50
250;BME280;109;19.806;-70.704;2022-12-07T15:19:02;101781.06;;;25.22;54.71
250;BME280;109;19.806;-70.704;2022-12-07T15:21:28;101779.16;;;25.02;55.36
250;BME280;109;19.806;-70.704;2022-12-07T15:23:55;101783.31;;;24.87;55.29
250;BME280;109;19.806;-70.704;2022-12-07T15:26:21;101786.75;;;24.66;57.30
250;BME280;109;19.806;-70.704;2022-12-07T15:28:48;101783.78;;;24.75;56.82
250;BME280;109;19.806;-70.704;2022-12-07T15:31:16;101777.41;;;25.01;56.95
250;BME280;109;19.806;-70.704;2022-12-07T15:33:43;101774.38;;;25.10;56.71
250;BME280;109;19.806;-70.704;2022-12-07T15:36:22;101773.44;;;25.11;56.10
250;BME280;109;19.806;-70.704;2022-12-07T15:38:49;101762.03;;;25.29;55.53
250;BME280;109;19.806;-70.704;2022-12-07T15:41:16;101761.13;;;25.29;55.63
250;BME280;109;19.806;-70.704;2022-12-07T15:43:42;101759.69;;;25.20;54.64
250;BME280;109;19.806;-70.704;2022-12-07T15:46:36;101755.31;;;25.18;54.90
250;BME280;109;19.806;-70.704;2022-12-07T15:49:05;101752.50;;;24.99;55.06
250;BME280;109;19.806;-70.704;2022-12-07T15:51:32;101752.50;;;24.99;55.11
250;BME280;109;19.806;-70.704;2022-12-07T15:53:58;101746.19;;;25.00;55.12
250;BME280;109;19.806;-70.704;2022-12-07T15:56:25;101742.41;;;24.84;55.37
250;BME280;109;19.806;-70.704;2022-12-07T15:58:52;101742.97;;;24.92;55.12
250;BME280;109;19.806;-70.704;2022-12-07T16:01:19;101743.91;;;25.13;55.12
250;BME280;109;19.806;-70.704;2022-12-07T16:03:46;101742.44;;;25.27;55.35
250;BME280;109;19.806;-70.704;2022-12-07T16:06:18;101738.06;;;25.25;55.09